createdAt,value
2017-12-31T00:02:21.827Z,9.80
2017-12-31T00:04:49.823Z,9.80
2017-12-31T00:07:18.575Z,9.80
2017-12-31T00:09:46.580Z,9.70
2017-12-31T00:12:14.575Z,9.80
2017-12-31T00:14:42.563Z,9.80
2017-12-31T00:17:10.555Z,9.80
2017-12-31T00:19:39.319Z,9.90
2017-12-31T00:22:07.312Z,9.90
2017-12-31T00:24:35.363Z,10.00
2017-12-31T00:27:04.192Z,10.00
2017-12-31T00:29:32.178Z,10.00
2017-12-31T00:32:00.195Z,10.10
2017-12-31T00:34:28.967Z,10.10
2017-12-31T00:36:56.980Z,10.00
2017-12-31T00:39:25.424Z,10.00
2017-12-31T00:41:53.420Z,10.10
2017-12-31T00:44:21.415Z,10.10
2017-12-31T00:46:49.424Z,10.10
2017-12-31T00:49:18.199Z,10.10
2017-12-31T00:51:46.192Z,10.00
2017-12-31T00:54:14.955Z,10.00
2017-12-31T00:56:42.959Z,10.00
2017-12-31T00:59:10.954Z,10.00
2017-12-31T01:01:39.715Z,10.10
2017-12-31T01:04:07.715Z,10.00
2017-12-31T01:06:35.708Z,10.10
2017-12-31T01:09:03.707Z,10.10
2017-12-31T01:11:32.483Z,10.10
2017-12-31T01:14:00.468Z,10.10
2017-12-31T01:16:28.479Z,10.10
2017-12-31T01:18:57.239Z,10.00
2017-12-31T05:26:39.285Z,11.00
2017-12-31T05:29:07.288Z,11.10
2017-12-31T05:31:35.323Z,11.20
2017-12-31T05:34:04.108Z,11.20
2017-12-31T05:36:32.127Z,11.20
2017-12-31T05:39:00.139Z,11.30
2017-12-31T05:41:28.180Z,11.30
2017-12-31T05:43:56.959Z,11.30
2017-12-31T05:46:24.966Z,11.20
2017-12-31T05:48:52.974Z,11.30
2017-12-31T05:51:20.984Z,11.20
2017-12-31T05:53:49.757Z,11.30
2017-12-31T05:56:17.774Z,11.20
2017-12-31T05:58:45.791Z,11.30
2017-12-31T06:01:14.556Z,11.30
2017-12-31T06:03:42.567Z,11.30
2017-12-31T06:06:10.590Z,11.30
2017-12-31T06:08:38.592Z,11.40
2017-12-31T06:11:06.819Z,11.30
2017-12-31T06:13:34.828Z,11.30
2017-12-31T06:16:02.827Z,11.30
2017-12-31T06:18:30.853Z,11.30
2017-12-31T06:20:58.860Z,11.40
2017-12-31T06:23:27.648Z,11.40
2017-12-31T06:25:56.444Z,11.40
2017-12-31T06:28:24.456Z,11.40
2017-12-31T06:30:52.472Z,11.40
2017-12-31T06:33:20.483Z,11.40
2017-12-31T06:35:48.498Z,11.40
2017-12-31T06:38:16.495Z,11.40
2017-12-31T06:40:44.513Z,11.40
2017-12-31T06:43:12.522Z,11.40
2017-12-31T06:45:40.523Z,11.40
2017-12-31T06:48:09.308Z,11.50
2017-12-31T06:50:37.315Z,11.50
2017-12-31T06:53:05.329Z,11.60
2017-12-31T06:55:33.345Z,11.60
2017-12-31T06:58:01.395Z,11.70
2017-12-31T07:00:29.400Z,11.70
2017-12-31T07:02:57.420Z,11.70
2017-12-31T07:05:26.207Z,11.60
2017-12-31T07:07:55.915Z,11.70
2017-12-31T07:10:23.932Z,11.60
2017-12-31T07:12:52.711Z,11.80
2017-12-31T07:15:20.723Z,11.70
2017-12-31T07:17:48.744Z,11.80
2017-12-31T07:20:16.769Z,11.80
2017-12-31T07:22:45.536Z,11.80
2017-12-31T07:25:13.553Z,11.70
2017-12-31T07:27:42.335Z,11.90
2017-12-31T07:30:10.344Z,11.80
2017-12-31T07:32:38.371Z,11.90
2017-12-31T07:35:06.385Z,11.80
2017-12-31T07:37:34.383Z,11.90
2017-12-31T07:40:02.400Z,11.90
2017-12-31T07:42:30.419Z,11.90
2017-12-31T07:44:58.428Z,11.90
2017-12-31T07:47:26.453Z,11.80
2017-12-31T07:49:54.476Z,11.90
2017-12-31T07:52:22.477Z,11.90
2017-12-31T07:54:50.494Z,11.90
2017-12-31T07:57:18.529Z,11.90
2017-12-31T07:59:46.536Z,11.90
2017-12-31T08:02:15.320Z,11.90
2017-12-31T08:04:43.344Z,11.90
2017-12-31T08:07:11.339Z,11.90
2017-12-31T08:09:39.351Z,12.00
2017-12-31T08:12:07.366Z,12.00
2017-12-31T08:14:36.136Z,12.00
2017-12-31T08:17:04.154Z,12.00
2017-12-31T08:19:32.935Z,12.00
2017-12-31T08:22:00.943Z,12.00
2017-12-31T08:24:29.731Z,12.00
2017-12-31T08:26:57.752Z,11.90
2017-12-31T08:29:25.765Z,12.00
2017-12-31T08:31:53.775Z,12.10
2017-12-31T08:34:21.783Z,12.10
2017-12-31T08:36:49.788Z,12.10
2017-12-31T08:39:17.866Z,12.20
2017-12-31T08:41:45.867Z,12.30
2017-12-31T08:44:13.872Z,12.30
2017-12-31T08:46:41.884Z,12.30
2017-12-31T08:49:11.667Z,12.30
2017-12-31T08:51:39.668Z,12.20
2017-12-31T08:54:07.692Z,12.30
2017-12-31T08:56:35.712Z,12.30
2017-12-31T08:59:03.716Z,12.30
2017-12-31T09:01:31.743Z,12.30
2017-12-31T09:03:59.756Z,12.30
2017-12-31T09:06:27.763Z,12.30
2017-12-31T09:08:55.801Z,12.30
2017-12-31T09:11:24.557Z,12.30
2017-12-31T09:13:52.559Z,12.30
2017-12-31T09:16:21.394Z,12.30
2017-12-31T09:18:50.146Z,12.30
2017-12-31T09:21:18.148Z,12.30
2017-12-31T09:23:46.196Z,12.30
2017-12-31T09:26:14.212Z,12.30
2017-12-31T09:28:47.184Z,12.20
2017-12-31T09:31:15.207Z,12.30
2017-12-31T09:33:43.218Z,12.30
2017-12-31T09:36:11.245Z,12.30
2017-12-31T09:38:39.260Z,12.40
2017-12-31T09:41:07.270Z,12.50
2017-12-31T09:43:35.281Z,12.40
2017-12-31T09:46:03.289Z,12.50
2017-12-31T09:48:32.073Z,12.50
2017-12-31T09:51:00.091Z,12.50
2017-12-31T09:53:28.107Z,12.50
2017-12-31T09:55:56.114Z,12.60
2017-12-31T09:58:24.123Z,12.60
2017-12-31T10:00:52.908Z,12.40
2017-12-31T10:03:20.908Z,12.30
2017-12-31T10:05:49.696Z,12.30
2017-12-31T10:08:17.704Z,12.20
2017-12-31T10:10:45.811Z,12.30
2017-12-31T10:13:13.831Z,12.10
2017-12-31T10:15:41.850Z,12.00
2017-12-31T10:18:09.839Z,12.00
2017-12-31T10:20:37.856Z,12.00
2017-12-31T10:23:05.871Z,12.00
2017-12-31T10:25:33.880Z,12.10
2017-12-31T10:28:01.901Z,12.30
2017-12-31T10:30:29.940Z,12.50
2017-12-31T10:32:57.939Z,12.70
2017-12-31T10:35:25.998Z,12.90
2017-12-31T10:37:54.776Z,13.00
2017-12-31T10:40:22.780Z,12.90
2017-12-31T10:42:51.560Z,12.90
2017-12-31T10:45:19.580Z,12.80
2017-12-31T10:47:48.344Z,12.80
2017-12-31T10:50:16.360Z,12.80
2017-12-31T10:52:45.154Z,12.90
2017-12-31T10:55:13.151Z,12.90
2017-12-31T10:57:41.172Z,12.90
2017-12-31T11:00:09.191Z,13.00
2017-12-31T11:02:37.180Z,13.00
2017-12-31T11:05:05.963Z,13.20
2017-12-31T11:07:33.985Z,13.20
2017-12-31T11:10:01.986Z,13.20
2017-12-31T11:12:30.036Z,13.10
2017-12-31T11:14:58.048Z,13.10
2017-12-31T11:17:26.048Z,13.00
2017-12-31T11:19:54.064Z,12.90
2017-12-31T11:22:22.929Z,12.80
2017-12-31T11:24:50.929Z,12.80
2017-12-31T11:27:18.956Z,12.80
2017-12-31T11:29:47.731Z,12.80
2017-12-31T11:32:15.743Z,12.70
2017-12-31T11:34:44.526Z,12.70
2017-12-31T11:37:13.393Z,12.70
2017-12-31T11:39:41.388Z,12.70
2017-12-31T11:42:09.776Z,12.80
2017-12-31T11:44:37.790Z,12.90
2017-12-31T11:47:07.592Z,12.90
2017-12-31T11:49:35.612Z,12.80
2017-12-31T11:52:03.652Z,12.90
2017-12-31T11:54:31.659Z,12.90
2017-12-31T11:56:59.736Z,12.90
2017-12-31T11:59:27.759Z,12.90
2017-12-31T12:01:55.813Z,12.90
2017-12-31T12:04:23.840Z,12.90
2017-12-31T12:06:51.819Z,12.90
2017-12-31T12:09:19.827Z,13.00
2017-12-31T12:11:47.848Z,13.00
2017-12-31T12:14:16.627Z,13.00
2017-12-31T12:16:45.404Z,13.00
2017-12-31T12:19:13.483Z,12.90
2017-12-31T12:21:41.484Z,13.10
2017-12-31T12:24:09.777Z,13.00
2017-12-31T12:26:37.922Z,12.90
2017-12-31T12:29:08.028Z,12.90
2017-12-31T12:31:36.021Z,13.10
2017-12-31T12:34:04.799Z,13.50
2017-12-31T12:36:32.824Z,13.50
2017-12-31T12:39:00.828Z,13.50
2017-12-31T12:41:28.860Z,13.50
2017-12-31T12:43:57.655Z,13.70
2017-12-31T12:46:26.440Z,13.80
2017-12-31T12:48:54.453Z,13.80
2017-12-31T12:51:23.233Z,13.80
2017-12-31T12:53:51.232Z,13.80
2017-12-31T12:56:20.288Z,13.80
2017-12-31T12:58:48.297Z,13.70
2017-12-31T13:01:16.291Z,13.60
2017-12-31T13:03:45.086Z,13.70
2017-12-31T13:06:13.087Z,13.60
2017-12-31T13:08:41.857Z,13.90
2017-12-31T13:11:09.868Z,13.80
2017-12-31T13:13:40.588Z,13.80
2017-12-31T13:16:08.596Z,13.70
2017-12-31T13:18:37.378Z,13.60
2017-12-31T13:21:05.402Z,13.60
2017-12-31T13:23:33.404Z,13.60
2017-12-31T13:26:01.447Z,13.60
2017-12-31T13:28:30.228Z,13.50
2017-12-31T13:30:58.239Z,13.50
2017-12-31T13:33:27.015Z,13.50
2017-12-31T13:35:55.915Z,13.40
2017-12-31T13:38:23.931Z,13.50
2017-12-31T13:40:52.719Z,13.80
2017-12-31T13:43:20.739Z,13.70
2017-12-31T13:45:48.735Z,13.80
2017-12-31T13:48:17.590Z,13.80
2017-12-31T13:50:46.391Z,13.70
2017-12-31T13:53:14.380Z,13.60
2017-12-31T13:55:44.075Z,13.40
2017-12-31T13:58:12.100Z,13.40
2017-12-31T14:00:40.094Z,13.40
2017-12-31T14:03:09.228Z,13.30
2017-12-31T14:05:37.235Z,13.20
2017-12-31T14:08:05.231Z,13.20
2017-12-31T14:10:33.247Z,13.10
2017-12-31T14:13:01.269Z,13.00
2017-12-31T14:15:29.269Z,13.10
2017-12-31T14:17:57.317Z,13.00
2017-12-31T14:20:25.341Z,13.00
2017-12-31T14:22:54.216Z,13.00
2017-12-31T14:25:22.247Z,13.00
2017-12-31T14:27:51.023Z,12.90
2017-12-31T14:30:19.027Z,12.90
2017-12-31T14:32:47.808Z,12.90
2017-12-31T14:35:15.832Z,12.80
2017-12-31T14:37:43.824Z,12.80
2017-12-31T14:40:11.843Z,12.80
2017-12-31T14:42:39.856Z,12.70
2017-12-31T14:45:08.616Z,12.80
2017-12-31T14:47:36.636Z,12.80
2017-12-31T14:50:04.688Z,12.80
2017-12-31T14:52:32.707Z,12.80
2017-12-31T14:55:00.766Z,12.80
2017-12-31T14:57:28.851Z,12.80
2017-12-31T14:59:56.848Z,12.80
2017-12-31T15:02:24.877Z,12.70
2017-12-31T15:04:52.888Z,12.70
2017-12-31T15:07:20.883Z,12.70
2017-12-31T15:09:48.896Z,12.60
2017-12-31T15:12:18.535Z,12.50
2017-12-31T15:14:46.541Z,12.40
2017-12-31T15:17:14.561Z,12.30
2017-12-31T15:19:42.575Z,12.30
2017-12-31T15:22:11.888Z,12.10
2017-12-31T15:24:39.941Z,12.10
2017-12-31T15:27:07.947Z,12.00
2017-12-31T15:29:36.742Z,12.00
2017-12-31T15:32:05.521Z,12.00
2017-12-31T15:34:33.531Z,11.90
2017-12-31T15:37:02.315Z,11.80
2017-12-31T15:39:30.348Z,11.80
2017-12-31T15:41:58.365Z,11.80
2017-12-31T15:44:26.366Z,11.80
2017-12-31T15:46:54.367Z,11.70
2017-12-31T15:49:23.407Z,11.60
2017-12-31T15:51:51.405Z,11.60
2017-12-31T15:54:19.428Z,11.60
2017-12-31T15:56:47.445Z,11.60
2017-12-31T15:59:15.471Z,11.50
2017-12-31T16:01:43.488Z,11.50
2017-12-31T16:04:12.256Z,11.40
2017-12-31T16:06:40.257Z,11.30
2017-12-31T16:09:08.273Z,11.30
2017-12-31T16:11:36.288Z,11.30
2017-12-31T16:14:04.296Z,11.20
2017-12-31T16:16:32.314Z,11.20
2017-12-31T16:19:00.372Z,11.10
2017-12-31T16:21:28.369Z,11.00
2017-12-31T16:23:57.155Z,10.90
2017-12-31T16:26:25.169Z,10.90
2017-12-31T16:28:53.163Z,11.00
2017-12-31T16:31:22.175Z,10.90
2017-12-31T16:33:50.179Z,10.90
2017-12-31T16:36:18.176Z,10.80
2017-12-31T16:38:46.191Z,10.80
2017-12-31T16:41:14.972Z,10.70
2017-12-31T16:43:42.972Z,10.70
2017-12-31T16:46:11.758Z,10.60
2017-12-31T16:48:39.768Z,10.50
2017-12-31T16:51:07.764Z,10.50
2017-12-31T16:53:35.768Z,10.50
2017-12-31T16:56:03.784Z,10.50
2017-12-31T16:58:31.791Z,10.40
2017-12-31T17:01:00.590Z,10.30
2017-12-31T17:03:28.599Z,10.30
2017-12-31T17:05:56.598Z,10.40
2017-12-31T17:08:24.599Z,10.30
2017-12-31T17:10:52.612Z,10.20
2017-12-31T17:13:21.371Z,10.10
2017-12-31T17:15:49.376Z,10.10
2017-12-31T17:18:17.484Z,10.20
2017-12-31T17:20:46.242Z,10.10
2017-12-31T17:23:14.256Z,10.10
2017-12-31T17:25:42.269Z,10.10
2017-12-31T17:28:10.263Z,10.10
2017-12-31T17:30:38.377Z,10.10
2017-12-31T17:33:06.384Z,10.10
2017-12-31T17:35:34.389Z,10.10
2017-12-31T17:38:03.171Z,10.10
2017-12-31T17:40:31.192Z,10.00
2017-12-31T17:42:59.199Z,10.00
2017-12-31T17:45:27.209Z,10.00
2017-12-31T17:47:55.215Z,10.00
2017-12-31T17:50:23.973Z,9.80
2017-12-31T17:52:51.979Z,9.80
2017-12-31T17:55:19.979Z,9.80
2017-12-31T17:57:48.752Z,9.70
2017-12-31T18:00:16.752Z,9.70
2017-12-31T18:02:45.519Z,9.70
2017-12-31T18:05:13.512Z,9.60
2017-12-31T18:07:41.511Z,9.70
2017-12-31T18:10:09.520Z,9.70
2017-12-31T18:12:37.507Z,9.70
2017-12-31T18:15:05.518Z,9.70
2017-12-31T18:17:33.533Z,9.70
2017-12-31T18:20:01.523Z,9.70
2017-12-31T18:22:29.538Z,9.60
2017-12-31T18:24:58.307Z,9.60
2017-12-31T18:27:26.304Z,9.50
2017-12-31T18:29:55.072Z,9.60
2017-12-31T18:32:23.075Z,9.50
2017-12-31T18:34:51.067Z,9.50
2017-12-31T18:37:19.844Z,9.50
2017-12-31T18:39:47.847Z,9.40
2017-12-31T18:42:16.611Z,9.40
2017-12-31T18:44:44.619Z,9.30
2017-12-31T18:47:12.635Z,9.30
2017-12-31T18:49:40.651Z,9.30
2017-12-31T18:52:08.652Z,9.30
2017-12-31T18:54:36.675Z,9.20
2017-12-31T18:57:04.675Z,9.20
2017-12-31T18:59:32.696Z,9.20
2017-12-31T19:02:00.700Z,9.10
2017-12-31T19:04:28.692Z,9.20
2017-12-31T19:06:57.539Z,9.00
2017-12-31T19:09:25.537Z,9.00
2017-12-31T19:11:53.567Z,9.00
2017-12-31T19:14:22.350Z,9.00
2017-12-31T19:16:50.348Z,8.90
2017-12-31T19:19:19.127Z,8.90
2017-12-31T19:21:47.139Z,8.90
2017-12-31T19:24:15.928Z,8.90
2017-12-31T19:26:43.928Z,8.80
2017-12-31T19:29:12.703Z,8.90
2017-12-31T19:31:40.704Z,8.80
2017-12-31T19:34:09.467Z,8.80
2017-12-31T19:36:37.488Z,8.70
2017-12-31T19:39:06.260Z,8.80
2017-12-31T19:41:34.272Z,8.70
2017-12-31T19:44:03.055Z,8.80
2017-12-31T19:46:31.070Z,8.80
2017-12-31T19:48:59.062Z,8.80
2017-12-31T19:51:27.084Z,8.80
2017-12-31T19:53:55.090Z,8.80
2017-12-31T19:56:23.076Z,8.80
2017-12-31T19:58:51.858Z,8.80
2017-12-31T20:01:19.867Z,8.80
2017-12-31T20:03:48.632Z,8.80
2017-12-31T20:06:16.644Z,8.70
2017-12-31T20:08:45.703Z,8.80
2017-12-31T20:11:13.720Z,8.70
2017-12-31T20:13:41.720Z,8.80
2017-12-31T20:16:10.523Z,8.60
2017-12-31T20:18:39.284Z,8.60
2017-12-31T20:21:07.295Z,8.50
2017-12-31T20:23:35.303Z,8.50
2017-12-31T20:26:03.295Z,8.50
2017-12-31T20:28:31.303Z,8.50
2017-12-31T20:30:59.320Z,8.50
2017-12-31T20:33:27.309Z,8.40
2017-12-31T20:35:56.934Z,8.30
2017-12-31T20:38:25.712Z,8.20
2017-12-31T20:40:53.702Z,8.20
2017-12-31T20:43:21.715Z,8.20
2017-12-31T20:45:50.495Z,8.20
2017-12-31T20:48:18.488Z,8.20
2017-12-31T20:50:47.268Z,8.20
2017-12-31T20:53:15.280Z,8.20
2017-12-31T20:55:44.045Z,8.20
2017-12-31T20:58:12.047Z,8.20
2017-12-31T21:00:40.056Z,8.30
2017-12-31T21:03:08.060Z,8.20
2017-12-31T21:05:36.084Z,8.20
2017-12-31T21:08:06.598Z,8.20
2017-12-31T21:10:34.600Z,8.20
2017-12-31T21:13:02.607Z,8.20
2017-12-31T21:15:31.409Z,8.10
2017-12-31T21:18:00.231Z,8.20
2017-12-31T21:20:29.188Z,8.10
2017-12-31T21:22:57.187Z,8.20
2017-12-31T21:25:25.176Z,8.10
2017-12-31T21:27:53.185Z,8.10
2017-12-31T21:30:21.196Z,8.30
2017-12-31T21:32:49.192Z,8.30
2017-12-31T21:35:17.204Z,8.40
2017-12-31T21:37:45.224Z,8.30
2017-12-31T21:40:13.220Z,8.30
2017-12-31T21:42:41.219Z,8.30
2017-12-31T21:45:09.233Z,8.30
2017-12-31T21:47:37.228Z,8.30
2017-12-31T21:50:06.013Z,8.30
2017-12-31T21:52:34.025Z,8.30
2017-12-31T21:55:02.785Z,8.20
2017-12-31T21:57:30.804Z,8.20
2017-12-31T21:59:59.583Z,8.20
2017-12-31T22:02:27.575Z,8.20
2017-12-31T22:04:57.353Z,8.20
2017-12-31T22:07:25.354Z,8.20
2017-12-31T22:09:53.351Z,8.30
2017-12-31T22:12:21.360Z,8.40
2017-12-31T22:14:49.380Z,8.40
2017-12-31T22:17:17.364Z,8.40
2017-12-31T22:19:45.385Z,8.40
2017-12-31T22:22:13.409Z,8.40
2017-12-31T22:24:41.392Z,8.40
2017-12-31T22:27:09.391Z,8.40
2017-12-31T22:29:37.399Z,8.40
2017-12-31T22:32:05.400Z,8.40
2017-12-31T22:34:33.412Z,8.30
2017-12-31T22:37:01.416Z,8.40
2017-12-31T22:39:29.410Z,8.40
2017-12-31T22:41:57.427Z,8.30
2017-12-31T22:44:25.432Z,8.40
2017-12-31T22:46:54.204Z,8.50
2017-12-31T22:49:22.203Z,8.40
2017-12-31T22:51:50.975Z,8.50
2017-12-31T22:54:19.912Z,8.50
2017-12-31T22:56:48.679Z,8.50
2017-12-31T22:59:16.679Z,8.40
2017-12-31T23:01:44.671Z,8.50
2017-12-31T23:04:13.443Z,8.50
2017-12-31T23:06:41.930Z,8.40
2017-12-31T23:09:09.916Z,8.40
2017-12-31T23:11:37.927Z,8.50
2017-12-31T23:14:05.941Z,8.50
2017-12-31T23:16:33.936Z,8.50
2017-12-31T23:19:01.953Z,8.40
2017-12-31T23:21:29.967Z,8.40
2017-12-31T23:23:58.736Z,8.40
2017-12-31T23:26:26.744Z,8.30
2017-12-31T23:28:55.519Z,8.30
2017-12-31T23:31:23.519Z,8.30
2017-12-31T23:33:52.036Z,8.30
2017-12-31T23:36:20.820Z,8.30
2017-12-31T23:38:48.807Z,8.20
2017-12-31T23:41:17.584Z,8.40
2017-12-31T23:43:45.605Z,8.30
2017-12-31T23:46:14.364Z,8.50
2017-12-31T23:48:42.384Z,8.40
2017-12-31T23:51:11.191Z,8.60
2017-12-31T23:53:39.191Z,8.50
2017-12-31T23:56:07.208Z,8.50
2017-12-31T23:58:35.219Z,8.60
